Time;durP1;ratioP1;P1;durP2;ratioP2;P2;SDS_P1;SDS_P2;PMS_P1;PMS_P2;Temp;Humidity;BMP_temperature;BMP_pressure;BME280_temperature;BME280_humidity;BME280_pressure;Samples;Min_cycle;Max_cycle;Signal;HPM_P1;HPM_P2
2023/07/21 00:00:15;;;;;;;14.40;7.90;;;;;;;;;;5072422;28;20020;-58
2023/07/21 00:02:41;;;;;;;15.25;8.30;;;;;;;;;;5072114;28;20033;-56
2023/07/21 00:05:07;;;;;;;15.20;8.50;;;;;;;;;;5071318;28;20472;-58
2023/07/21 00:07:35;;;;;;;15.55;8.30;;;;;;;;;;5071790;28;20112;-57
2023/07/21 00:10:07;;;;;;;14.30;8.13;;;;;;;;;;5054038;28;20025;-56
2023/07/21 00:12:33;;;;;;;14.50;8.10;;;;;;;;;;5071935;28;20107;-57
2023/07/21 00:15:00;;;;;;;14.75;7.70;;;;;;;;;;5071239;28;20098;-53
2023/07/21 00:17:28;;;;;;;15.23;8.00;;;;;;;;;;5071917;28;20024;-56
2023/07/21 00:19:54;;;;;;;14.70;8.10;;;;;;;;;;5073353;28;20118;-53
2023/07/21 00:22:20;;;;;;;14.10;8.00;;;;;;;;;;5054172;28;20052;-56
2023/07/21 00:24:46;;;;;;;15.70;7.40;;;;;;;;;;5071123;28;20499;-56
2023/07/21 00:27:12;;;;;;;14.90;7.40;;;;;;;;;;5071655;28;20040;-55
2023/07/21 00:29:38;;;;;;;14.70;7.78;;;;;;;;;;5071739;28;20032;-54
2023/07/21 00:32:05;;;;;;;16.02;7.57;;;;;;;;;;5071704;28;20540;-57
2023/07/21 00:34:31;;;;;;;14.60;7.32;;;;;;;;;;5070986;28;20067;-54
2023/07/21 00:36:57;;;;;;;14.93;8.15;;;;;;;;;;5053805;28;20067;-54
2023/07/21 00:39:23;;;;;;;16.67;7.07;;;;;;;;;;5071606;28;20028;-53
2023/07/21 00:41:49;;;;;;;16.25;7.45;;;;;;;;;;5071649;28;20021;-55
2023/07/21 00:44:15;;;;;;;14.80;7.20;;;;;;;;;;5071178;28;20035;-55
2023/07/21 00:46:41;;;;;;;15.30;7.05;;;;;;;;;;5071646;28;20074;-54
2023/07/21 00:49:08;;;;;;;14.55;7.22;;;;;;;;;;5071558;28;20027;-54
2023/07/21 00:51:34;;;;;;;14.38;7.30;;;;;;;;;;5071350;28;20021;-55
2023/07/21 00:54:00;;;;;;;18.70;7.00;;;;;;;;;;5070864;28;20023;-55
2023/07/21 00:56:26;;;;;;;14.60;6.78;;;;;;;;;;5071560;28;20112;-54
2023/07/21 00:58:52;;;;;;;15.10;7.10;;;;;;;;;;5071438;28;20020;-54
2023/07/21 01:01:18;;;;;;;15.23;6.80;;;;;;;;;;5071633;28;20028;-56
2023/07/21 01:03:44;;;;;;;14.57;7.00;;;;;;;;;;5071283;28;20048;-56
2023/07/21 01:06:11;;;;;;;14.23;7.00;;;;;;;;;;5052887;28;20091;-54
2023/07/21 01:08:37;;;;;;;15.55;7.53;;;;;;;;;;5071169;28;20032;-52
2023/07/21 01:11:03;;;;;;;16.35;6.93;;;;;;;;;;5071470;28;20024;-56
2023/07/21 01:13:31;;;;;;;15.63;7.32;;;;;;;;;;5071348;28;20017;-54
2023/07/21 01:15:57;;;;;;;15.20;7.15;;;;;;;;;;5070664;28;20023;-55
2023/07/21 01:18:25;;;;;;;15.10;7.38;;;;;;;;;;5071230;28;20029;-52
2023/07/21 01:20:52;;;;;;;15.93;7.50;;;;;;;;;;5053466;28;20031;-55
2023/07/21 01:23:22;;;;;;;14.82;7.20;;;;;;;;;;5071315;28;20021;-54
2023/07/21 01:25:48;;;;;;;16.20;7.70;;;;;;;;;;5052672;28;20051;-54
2023/07/21 01:28:15;;;;;;;15.57;7.70;;;;;;;;;;5071109;28;20032;-53
2023/07/21 01:30:41;;;;;;;15.20;7.93;;;;;;;;;;5071161;28;20028;-55
2023/07/21 01:33:08;;;;;;;16.10;8.00;;;;;;;;;;5071201;28;20033;-53
2023/07/21 01:35:35;;;;;;;15.80;7.45;;;;;;;;;;5070418;28;20021;-56
2023/07/21 01:38:02;;;;;;;16.88;8.15;;;;;;;;;;5071287;28;20020;-53
2023/07/21 01:40:29;;;;;;;18.40;8.07;;;;;;;;;;5071304;28;20035;-55
2023/07/21 01:42:55;;;;;;;17.45;7.40;;;;;;;;;;5071197;28;20572;-53
2023/07/21 01:45:21;;;;;;;16.15;7.40;;;;;;;;;;5070558;28;20530;-53
2023/07/21 01:47:47;;;;;;;14.73;7.40;;;;;;;;;;5071112;28;20025;-53
2023/07/21 01:50:16;;;;;;;14.95;7.57;;;;;;;;;;5071173;28;20029;-53
2023/07/21 01:52:42;;;;;;;17.45;8.25;;;;;;;;;;5071096;28;20078;-52
2023/07/21 01:55:29;;;;;;;17.27;7.40;;;;;;;;;;5052387;28;20451;-53
2023/07/21 01:57:57;;;;;;;14.75;7.30;;;;;;;;;;5073004;28;20028;-55
2023/07/21 02:00:26;;;;;;;16.20;7.50;;;;;;;;;;5074698;28;20032;-55
2023/07/21 02:02:52;;;;;;;16.30;8.18;;;;;;;;;;5074559;28;20046;-49
2023/07/21 02:05:19;;;;;;;26.60;8.45;;;;;;;;;;5073826;28;20108;-54
2023/07/21 02:07:45;;;;;;;15.77;8.52;;;;;;;;;;5074212;28;20048;-53
2023/07/21 02:10:11;;;;;;;16.02;8.35;;;;;;;;;;5074287;28;20480;-53
2023/07/21 02:12:38;;;;;;;16.02;8.32;;;;;;;;;;5074235;28;20051;-54
2023/07/21 02:15:05;;;;;;;16.95;8.68;;;;;;;;;;5073607;28;20017;-55
2023/07/21 02:17:32;;;;;;;15.13;8.27;;;;;;;;;;5074231;28;20020;-52
2023/07/21 02:19:57;;;;;;;17.48;9.35;;;;;;;;;;5074243;28;20028;-52
2023/07/21 02:22:23;;;;;;;16.77;9.27;;;;;;;;;;5074292;28;20024;-53
2023/07/21 02:24:49;;;;;;;17.77;8.90;;;;;;;;;;5073271;28;20028;-49
2023/07/21 02:27:15;;;;;;;16.92;9.00;;;;;;;;;;5073934;28;20033;-52
2023/07/21 02:29:41;;;;;;;16.83;9.52;;;;;;;;;;5074004;28;20017;-50
2023/07/21 02:32:10;;;;;;;19.00;10.15;;;;;;;;;;5073963;28;20499;-51
2023/07/21 02:34:39;;;;;;;16.33;9.27;;;;;;;;;;5073364;28;20020;-53
2023/07/21 02:37:04;;;;;;;;;;;;;;;;;;5056459;28;20400;-52
2023/07/21 02:39:31;;;;;;;17.67;9.20;;;;;;;;;;5073746;28;19996;-55
2023/07/21 02:41:57;;;;;;;16.52;9.35;;;;;;;;;;5073677;28;20130;-56
2023/07/21 02:44:23;;;;;;;18.80;9.98;;;;;;;;;;5072972;28;20039;-56
2023/07/21 02:46:49;;;;;;;16.90;9.57;;;;;;;;;;5073670;28;20036;-57
2023/07/21 02:49:16;;;;;;;19.58;10.52;;;;;;;;;;5073513;28;20674;-53
2023/07/21 02:51:42;;;;;;;17.38;10.02;;;;;;;;;;5073539;28;20027;-50
2023/07/21 02:54:08;;;;;;;19.42;10.48;;;;;;;;;;5055222;28;20020;-54
2023/07/21 02:56:35;;;;;;;17.55;9.77;;;;;;;;;;5073432;28;20403;-51
2023/07/21 02:59:01;;;;;;;19.42;9.93;;;;;;;;;;5073440;28;20024;-53
2023/07/21 03:01:28;;;;;;;19.10;10.73;;;;;;;;;;5073533;28;20040;-53
2023/07/21 03:03:54;;;;;;;19.17;9.68;;;;;;;;;;5072953;28;20080;-54
2023/07/21 03:06:20;;;;;;;17.45;10.20;;;;;;;;;;5072866;28;20107;-54
2023/07/21 03:08:46;;;;;;;19.92;11.07;;;;;;;;;;5071969;28;20036;-49
2023/07/21 03:11:14;;;;;;;18.92;10.13;;;;;;;;;;5072882;28;20024;-52
2023/07/21 03:13:46;;;;;;;17.52;10.25;;;;;;;;;;5055149;28;20025;-55
2023/07/21 03:16:13;;;;;;;17.85;10.15;;;;;;;;;;5072376;28;20044;-51
2023/07/21 03:18:39;;;;;;;17.98;10.63;;;;;;;;;;5073068;28;20024;-51
2023/07/21 03:21:05;;;;;;;20.15;11.50;;;;;;;;;;5055079;28;20035;-53
2023/07/21 03:23:31;;;;;;;18.60;11.25;;;;;;;;;;5073022;28;20055;-54
2023/07/21 03:25:57;;;;;;;18.90;11.38;;;;;;;;;;5072146;28;20021;-49
2023/07/21 03:28:25;;;;;;;18.88;11.43;;;;;;;;;;5072529;28;20361;-55
2023/07/21 03:30:57;;;;;;;19.98;11.15;;;;;;;;;;5072806;28;20055;-54
2023/07/21 03:33:24;;;;;;;21.98;11.38;;;;;;;;;;5072749;28;20020;-55
2023/07/21 03:35:57;;;;;;;19.95;12.05;;;;;;;;;;5071932;28;20460;-52
2023/07/21 03:38:23;;;;;;;19.88;11.73;;;;;;;;;;5072590;28;20024;-54
2023/07/21 03:40:49;;;;;;;19.25;12.32;;;;;;;;;;5072742;28;20029;-56
2023/07/21 03:43:15;;;;;;;20.38;11.93;;;;;;;;;;5072290;28;20040;-53
2023/07/21 03:45:41;;;;;;;20.50;12.88;;;;;;;;;;5071842;28;20028;-55
2023/07/21 03:48:08;;;;;;;18.67;11.80;;;;;;;;;;5072375;28;20059;-56
2023/07/21 03:50:34;;;;;;;20.10;12.52;;;;;;;;;;5072236;28;20024;-54
2023/07/21 03:53:00;;;;;;;19.65;12.48;;;;;;;;;;5054438;28;20032;-56
2023/07/21 03:55:26;;;;;;;20.30;12.93;;;;;;;;;;5053850;28;20385;-55
2023/07/21 03:57:52;;;;;;;20.85;13.68;;;;;;;;;;5072170;28;20021;-54
2023/07/21 04:00:18;;;;;;;20.33;12.50;;;;;;;;;;5071953;28;20510;-53
2023/07/21 04:02:44;;;;;;;19.25;11.60;;;;;;;;;;5054244;28;20029;-55
2023/07/21 04:05:10;;;;;;;22.00;13.00;;;;;;;;;;5071381;28;20488;-54
2023/07/21 04:07:36;;;;;;;19.70;12.18;;;;;;;;;;5071934;28;20036;-55
2023/07/21 04:10:02;;;;;;;20.13;12.65;;;;;;;;;;5054263;28;20439;-53
2023/07/21 04:12:28;;;;;;;19.15;11.75;;;;;;;;;;5054187;28;20027;-52
2023/07/21 04:14:55;;;;;;;19.08;11.68;;;;;;;;;;5071498;28;20090;-53
2023/07/21 04:17:21;;;;;;;19.98;12.18;;;;;;;;;;5071854;28;20035;-52
2023/07/21 04:19:47;;;;;;;20.80;12.52;;;;;;;;;;5071780;28;20017;-53
2023/07/21 04:22:13;;;;;;;21.17;13.25;;;;;;;;;;5071989;28;20052;-55
2023/07/21 04:24:39;;;;;;;19.27;12.77;;;;;;;;;;5071138;28;20054;-51
2023/07/21 04:27:05;;;;;;;19.20;12.25;;;;;;;;;;5071784;28;20486;-56
2023/07/21 04:29:31;;;;;;;19.92;13.00;;;;;;;;;;5071839;28;20020;-55
2023/07/21 04:31:57;;;;;;;19.27;12.57;;;;;;;;;;5072024;28;20040;-51
2023/07/21 04:34:23;;;;;;;23.48;13.40;;;;;;;;;;5071434;28;20024;-54
2023/07/21 04:36:49;;;;;;;21.30;14.38;;;;;;;;;;5054046;28;20027;-56
2023/07/21 04:39:15;;;;;;;21.17;13.82;;;;;;;;;;5071771;28;20039;-56
2023/07/21 04:41:41;;;;;;;21.48;13.80;;;;;;;;;;5071631;28;20098;-56
2023/07/21 04:44:06;;;;;;;21.27;14.00;;;;;;;;;;5071068;28;20115;-56
2023/07/21 04:46:32;;;;;;;22.23;13.60;;;;;;;;;;5071512;28;20032;-55
2023/07/21 04:48:59;;;;;;;21.75;14.10;;;;;;;;;;5071864;28;20040;-51
2023/07/21 04:51:25;;;;;;;21.33;13.68;;;;;;;;;;5053581;28;20090;-54
2023/07/21 04:53:51;;;;;;;23.33;14.00;;;;;;;;;;5053539;28;20040;-58
2023/07/21 04:56:17;;;;;;;22.10;14.00;;;;;;;;;;5071286;28;20028;-53
2023/07/21 04:58:44;;;;;;;20.42;14.15;;;;;;;;;;5071599;28;20501;-55
2023/07/21 05:01:10;;;;;;;22.08;14.13;;;;;;;;;;5071609;28;20021;-53
2023/07/21 05:03:36;;;;;;;21.05;14.13;;;;;;;;;;5071442;28;20017;-53
2023/07/21 05:06:02;;;;;;;20.80;13.98;;;;;;;;;;5070938;28;20104;-52
2023/07/21 05:08:28;;;;;;;22.92;15.27;;;;;;;;;;5071047;28;20028;-55
2023/07/21 05:10:55;;;;;;;22.00;15.02;;;;;;;;;;5071314;28;20021;-52
2023/07/21 05:13:21;;;;;;;19.70;13.07;;;;;;;;;;5071095;28;20721;-53
2023/07/21 05:15:47;;;;;;;22.58;15.27;;;;;;;;;;5070577;28;20123;-52
2023/07/21 05:18:13;;;;;;;21.67;14.18;;;;;;;;;;5071304;28;20453;-52
2023/07/21 05:20:40;;;;;;;22.25;15.30;;;;;;;;;;5071175;28;20032;-57
2023/07/21 05:23:06;;;;;;;20.75;13.35;;;;;;;;;;5071284;28;20066;-53
2023/07/21 05:25:32;;;;;;;20.55;13.60;;;;;;;;;;5070787;28;20443;-56
2023/07/21 05:27:58;;;;;;;22.38;14.48;;;;;;;;;;5070917;28;20032;-50
2023/07/21 05:30:24;;;;;;;19.77;13.30;;;;;;;;;;5071093;28;20079;-54
2023/07/21 05:32:50;;;;;;;22.55;14.40;;;;;;;;;;5073239;28;20116;-51
2023/07/21 05:35:17;;;;;;;20.85;13.88;;;;;;;;;;5074576;28;20376;-55
2023/07/21 05:37:43;;;;;;;19.50;13.38;;;;;;;;;;5074868;28;20028;-52
2023/07/21 05:40:10;;;;;;;20.38;12.82;;;;;;;;;;5074772;28;20029;-53
2023/07/21 05:42:36;;;;;;;21.58;13.70;;;;;;;;;;5074749;28;20130;-53
2023/07/21 05:45:05;;;;;;;20.35;14.00;;;;;;;;;;5073977;28;20103;-55
2023/07/21 05:47:31;;;;;;;22.88;13.27;;;;;;;;;;5074574;28;20483;-54
2023/07/21 05:50:01;;;;;;;21.77;14.05;;;;;;;;;;5074652;28;20460;-55
2023/07/21 05:52:27;;;;;;;20.92;13.20;;;;;;;;;;5074471;28;20442;-55
2023/07/21 05:54:54;;;;;;;26.35;13.95;;;;;;;;;;5073917;28;20031;-52
2023/07/21 05:57:20;;;;;;;19.17;12.63;;;;;;;;;;5074415;28;20059;-51
2023/07/21 05:59:45;;;;;;;19.95;13.68;;;;;;;;;;5074486;28;20434;-53
2023/07/21 06:02:12;;;;;;;20.80;13.65;;;;;;;;;;5073009;28;20043;-54
2023/07/21 06:04:38;;;;;;;20.17;14.10;;;;;;;;;;5066584;28;20024;-53
2023/07/21 06:07:04;;;;;;;29.08;16.60;;;;;;;;;;5057653;28;20020;-52
2023/07/21 06:09:30;;;;;;;21.85;14.60;;;;;;;;;;5074044;28;20119;-53
2023/07/21 06:11:56;;;;;;;20.80;14.05;;;;;;;;;;5047221;28;20477;-54
2023/07/21 06:14:22;;;;;;;21.73;13.57;;;;;;;;;;5053185;28;20059;-51
2023/07/21 06:16:48;;;;;;;21.05;14.48;;;;;;;;;;5054192;28;20539;-50
2023/07/21 06:19:14;;;;;;;21.08;13.38;;;;;;;;;;5055045;28;20025;-57
2023/07/21 06:21:40;;;;;;;24.95;14.32;;;;;;;;;;5072079;28;20116;-56
2023/07/21 06:24:06;;;;;;;20.35;13.55;;;;;;;;;;5055026;28;20025;-57
2023/07/21 06:26:32;;;;;;;20.95;13.63;;;;;;;;;;5073289;28;20091;-56
2023/07/21 06:28:58;;;;;;;21.23;13.95;;;;;;;;;;5073484;28;20365;-57
2023/07/21 06:31:24;;;;;;;23.02;13.93;;;;;;;;;;5073697;28;20028;-56
2023/07/21 06:33:50;;;;;;;23.17;14.45;;;;;;;;;;5055434;28;20025;-55
2023/07/21 06:36:17;;;;;;;21.95;14.15;;;;;;;;;;5073098;28;20053;-56
2023/07/21 06:38:43;;;;;;;22.35;13.70;;;;;;;;;;5054865;28;20024;-56
2023/07/21 06:41:09;;;;;;;19.75;13.75;;;;;;;;;;5053330;28;20470;-56
2023/07/21 06:43:35;;;;;;;20.00;14.02;;;;;;;;;;5054646;28;20037;-55
2023/07/21 06:46:05;;;;;;;21.52;14.07;;;;;;;;;;5060515;28;20025;-54
2023/07/21 06:48:31;;;;;;;22.20;13.13;;;;;;;;;;5053086;28;20041;-57
2023/07/21 06:50:57;;;;;;;21.35;13.40;;;;;;;;;;5053051;28;20021;-58
2023/07/21 06:53:23;;;;;;;20.33;12.80;;;;;;;;;;5052909;28;20520;-55
2023/07/21 06:55:51;;;;;;;20.45;13.50;;;;;;;;;;5051886;28;20021;-56
2023/07/21 06:58:17;;;;;;;21.70;12.75;;;;;;;;;;5052995;28;20489;-58
2023/07/21 07:00:43;;;;;;;20.55;12.27;;;;;;;;;;5053071;28;20055;-52
2023/07/21 07:03:09;;;;;;;20.55;12.40;;;;;;;;;;5056571;28;20656;-56
2023/07/21 07:05:35;;;;;;;21.25;12.68;;;;;;;;;;5072229;28;20037;-53
2023/07/21 07:08:01;;;;;;;20.17;12.25;;;;;;;;;;5072740;28;20037;-56
2023/07/21 07:10:27;;;;;;;22.42;12.65;;;;;;;;;;5072788;28;20094;-54
2023/07/21 07:12:53;;;;;;;18.77;12.43;;;;;;;;;;5054671;28;20028;-58
2023/07/21 07:15:19;;;;;;;18.27;12.10;;;;;;;;;;5071913;28;20025;-58
2023/07/21 07:17:45;;;;;;;19.25;11.82;;;;;;;;;;5072660;28;20025;-57
2023/07/21 07:20:11;;;;;;;19.77;12.05;;;;;;;;;;5072655;28;20384;-58
2023/07/21 07:22:38;;;;;;;19.45;11.93;;;;;;;;;;5072243;28;20021;-57
2023/07/21 07:25:04;;;;;;;18.05;11.52;;;;;;;;;;5071693;28;20032;-58
2023/07/21 07:27:30;;;;;;;18.63;11.77;;;;;;;;;;5072173;28;20024;-57
2023/07/21 07:29:56;;;;;;;18.98;11.88;;;;;;;;;;5072045;28;20464;-58
2023/07/21 07:32:22;;;;;;;19.05;11.50;;;;;;;;;;5072126;28;20043;-58
2023/07/21 07:34:48;;;;;;;21.25;11.55;;;;;;;;;;5071744;28;20086;-55
2023/07/21 07:37:15;;;;;;;17.60;11.50;;;;;;;;;;5072176;28;20025;-58
2023/07/21 07:39:41;;;;;;;18.25;11.20;;;;;;;;;;5072073;28;20056;-54
2023/07/21 07:42:07;;;;;;;18.70;11.77;;;;;;;;;;5072344;28;20486;-58
2023/07/21 07:44:33;;;;;;;17.75;10.77;;;;;;;;;;5054853;28;20165;-59
2023/07/21 07:46:59;;;;;;;17.70;11.10;;;;;;;;;;5071992;28;20033;-59
2023/07/21 07:49:25;;;;;;;17.35;10.77;;;;;;;;;;5071788;28;20032;-61
2023/07/21 07:51:51;;;;;;;16.88;10.18;;;;;;;;;;5071570;28;20097;-59
2023/07/21 07:54:17;;;;;;;17.75;10.70;;;;;;;;;;5070584;28;20430;-56
2023/07/21 07:56:43;;;;;;;17.50;11.25;;;;;;;;;;5053619;28;20024;-60
2023/07/21 07:59:09;;;;;;;17.17;10.18;;;;;;;;;;5071647;28;20024;-60
2023/07/21 08:01:35;;;;;;;17.00;9.82;;;;;;;;;;5071738;28;20142;-59
2023/07/21 08:04:01;;;;;;;19.75;11.40;;;;;;;;;;5071022;28;20028;-53
2023/07/21 08:06:27;;;;;;;18.55;10.25;;;;;;;;;;5071356;28;20040;-59
2023/07/21 08:08:54;;;;;;;16.85;10.48;;;;;;;;;;5071544;28;20094;-53
2023/07/21 08:11:20;;;;;;;18.38;11.80;;;;;;;;;;5071684;28;20438;-56
2023/07/21 08:13:46;;;;;;;17.60;10.80;;;;;;;;;;5071554;28;20025;-61
2023/07/21 08:16:13;;;;;;;16.30;10.73;;;;;;;;;;5070726;28;20499;-59
2023/07/21 08:18:40;;;;;;;17.02;10.80;;;;;;;;;;5071326;28;20438;-59
2023/07/21 08:21:22;;;;;;;16.60;10.80;;;;;;;;;;5071442;28;20074;-60
2023/07/21 08:23:49;;;;;;;17.42;11.40;;;;;;;;;;5071197;28;20392;-59
2023/07/21 08:26:15;;;;;;;19.95;11.02;;;;;;;;;;5052416;28;20043;-58
2023/07/21 08:28:41;;;;;;;17.20;11.10;;;;;;;;;;5071099;28;20060;-62
2023/07/21 08:31:09;;;;;;;16.60;10.95;;;;;;;;;;5071027;28;20067;-59
2023/07/21 08:33:35;;;;;;;16.33;10.88;;;;;;;;;;5063340;28;20059;-57
2023/07/21 08:36:01;;;;;;;16.58;10.85;;;;;;;;;;5050433;28;20025;-56
2023/07/21 08:38:27;;;;;;;16.60;11.27;;;;;;;;;;5051107;28;20040;-57
2023/07/21 08:40:56;;;;;;;17.48;11.10;;;;;;;;;;5051022;28;20052;-57
2023/07/21 08:43:22;;;;;;;17.40;11.60;;;;;;;;;;5051161;28;20044;-56
2023/07/21 08:45:50;;;;;;;18.52;11.75;;;;;;;;;;5050123;28;20059;-58
2023/07/21 08:48:17;;;;;;;18.63;13.23;;;;;;;;;;5065228;28;20020;-58
2023/07/21 08:50:44;;;;;;;16.50;12.45;;;;;;;;;;5050978;28;20033;-60
2023/07/21 08:53:10;;;;;;;16.45;11.75;;;;;;;;;;5065262;28;20492;-60
2023/07/21 08:55:36;;;;;;;16.70;12.65;;;;;;;;;;5069894;28;20020;-58
2023/07/21 08:58:02;;;;;;;17.73;12.75;;;;;;;;;;5067022;28;20016;-57
2023/07/21 09:00:28;;;;;;;17.63;13.23;;;;;;;;;;5049765;28;20533;-57
2023/07/21 09:03:02;;;;;;;17.67;12.55;;;;;;;;;;5062610;28;20034;-59
2023/07/21 09:05:28;;;;;;;19.90;12.63;;;;;;;;;;5059359;28;20039;-58
2023/07/21 09:07:55;;;;;;;16.70;12.63;;;;;;;;;;5069193;28;20059;-57
2023/07/21 09:10:30;;;;;;;18.63;13.38;;;;;;;;;;5069612;28;20074;-56
2023/07/21 09:12:56;;;;;;;16.20;11.95;;;;;;;;;;5074838;28;20431;-55
2023/07/21 09:15:22;;;;;;;17.65;12.13;;;;;;;;;;5074124;28;20016;-60
2023/07/21 09:17:48;;;;;;;16.88;12.98;;;;;;;;;;5073521;28;20115;-56
2023/07/21 09:20:14;;;;;;;17.42;12.45;;;;;;;;;;5074882;28;20024;-58
2023/07/21 09:22:40;;;;;;;18.73;12.48;;;;;;;;;;5074430;28;20430;-59
2023/07/21 09:25:08;;;;;;;17.55;12.13;;;;;;;;;;5067900;28;20074;-56
2023/07/21 09:27:38;;;;;;;18.13;11.73;;;;;;;;;;5056842;28;20450;-59
2023/07/21 09:30:04;;;;;;;16.80;11.43;;;;;;;;;;5074601;28;20032;-59
2023/07/21 09:32:38;;;;;;;18.08;11.93;;;;;;;;;;5067965;28;20025;-56
2023/07/21 09:35:05;;;;;;;16.25;11.63;;;;;;;;;;5064526;28;20031;-59
2023/07/21 09:37:32;;;;;;;15.90;11.57;;;;;;;;;;5074588;28;20021;-58
2023/07/21 09:39:59;;;;;;;16.83;11.52;;;;;;;;;;5074690;28;20101;-55
2023/07/21 09:42:26;;;;;;;16.70;11.52;;;;;;;;;;5073300;28;20354;-60
2023/07/21 09:44:53;;;;;;;15.68;11.48;;;;;;;;;;5065801;28;20024;-59
2023/07/21 09:47:19;;;;;;;16.15;11.73;;;;;;;;;;5074437;28;20097;-60
2023/07/21 09:49:46;;;;;;;17.35;12.10;;;;;;;;;;5056725;28;20020;-60
2023/07/21 09:52:15;;;;;;;17.73;11.90;;;;;;;;;;5074412;28;20040;-58
2023/07/21 09:54:44;;;;;;;17.50;12.10;;;;;;;;;;5074012;28;20017;-60
2023/07/21 09:57:11;;;;;;;15.80;12.30;;;;;;;;;;5073909;28;20119;-58
2023/07/21 09:59:39;;;;;;;16.60;12.25;;;;;;;;;;5073796;28;20078;-60
2023/07/21 10:02:08;;;;;;;16.35;12.73;;;;;;;;;;5074024;28;20024;-55
2023/07/21 10:04:35;;;;;;;16.38;11.77;;;;;;;;;;5055455;28;20056;-59
2023/07/21 10:07:03;;;;;;;16.15;12.25;;;;;;;;;;5068391;28;20036;-58
2023/07/21 10:09:29;;;;;;;;;;;;;;;;;;5056888;28;20025;-60
2023/07/21 10:12:06;;;;;;;20.80;12.43;;;;;;;;;;5054151;28;19921;-60
2023/07/21 10:14:33;;;;;;;16.05;11.80;;;;;;;;;;5052926;28;20085;-59
2023/07/21 10:16:59;;;;;;;16.40;12.10;;;;;;;;;;5055174;28;20060;-58
2023/07/21 10:19:28;;;;;;;18.15;12.43;;;;;;;;;;5069083;28;20063;-59
2023/07/21 10:21:54;;;;;;;16.88;12.48;;;;;;;;;;5073198;28;20028;-60
2023/07/21 10:24:27;;;;;;;16.10;12.23;;;;;;;;;;5072921;28;20054;-59
2023/07/21 10:27:16;;;;;;;16.02;12.48;;;;;;;;;;5073577;28;20483;-52
2023/07/21 10:29:42;;;;;;;17.92;12.70;;;;;;;;;;5073469;28;20043;-54
2023/07/21 10:32:10;;;;;;;16.38;11.98;;;;;;;;;;5073282;28;20025;-55
2023/07/21 10:34:43;;;;;;;16.45;11.68;;;;;;;;;;5072266;28;20020;-56
2023/07/21 10:37:09;;;;;;;15.80;11.07;;;;;;;;;;5073517;28;20451;-60
2023/07/21 10:39:37;;;;;;;16.17;11.73;;;;;;;;;;5071732;28;20028;-60
2023/07/21 10:42:03;;;;;;;;;;;;;;;;;;5073102;28;20029;-59
2023/07/21 10:44:33;;;;;;;18.15;12.38;;;;;;;;;;5072007;28;19954;-59
2023/07/21 10:46:59;;;;;;;18.65;12.73;;;;;;;;;;5073178;28;20025;-58
2023/07/21 10:49:26;;;;;;;16.63;12.10;;;;;;;;;;5073043;28;20128;-60
2023/07/21 10:51:52;;;;;;;16.50;12.18;;;;;;;;;;5073132;28;20062;-58
2023/07/21 10:54:18;;;;;;;16.23;11.77;;;;;;;;;;5072484;28;20020;-57
2023/07/21 10:56:45;;;;;;;16.75;12.20;;;;;;;;;;5073264;28;20020;-61
2023/07/21 10:59:12;;;;;;;16.45;12.63;;;;;;;;;;5070671;28;20021;-56
2023/07/21 11:01:42;;;;;;;16.75;12.40;;;;;;;;;;5070997;28;20029;-59
2023/07/21 11:04:08;;;;;;;16.92;12.20;;;;;;;;;;5071802;28;20033;-62
2023/07/21 11:06:39;;;;;;;16.08;12.00;;;;;;;;;;5054039;28;20103;-62
2023/07/21 11:09:05;;;;;;;16.60;11.73;;;;;;;;;;5053925;28;20561;-62
2023/07/21 11:11:31;;;;;;;17.30;12.77;;;;;;;;;;5070914;28;20373;-61
2023/07/21 11:13:57;;;;;;;16.23;12.63;;;;;;;;;;5070347;28;20233;-58
2023/07/21 11:16:23;;;;;;;15.80;12.10;;;;;;;;;;5070727;28;20020;-61
2023/07/21 11:18:49;;;;;;;16.48;12.80;;;;;;;;;;5070758;28;20028;-62
2023/07/21 11:21:15;;;;;;;17.00;12.82;;;;;;;;;;5069701;28;20400;-61
2023/07/21 11:23:41;;;;;;;16.65;12.70;;;;;;;;;;5070842;28;20024;-61
2023/07/21 11:26:09;;;;;;;15.82;12.50;;;;;;;;;;5070421;28;20060;-61
2023/07/21 11:28:35;;;;;;;;;;;;;;;;;;5072716;28;20124;-62
2023/07/21 11:31:01;;;;;;;15.68;11.88;;;;;;;;;;5071537;28;19912;-61
2023/07/21 11:33:43;;;;;;;17.35;12.20;;;;;;;;;;5054421;28;20017;-61
2023/07/21 11:36:16;;;;;;;16.08;11.90;;;;;;;;;;5071095;28;20469;-61
2023/07/21 11:38:42;;;;;;;16.25;12.77;;;;;;;;;;5053801;28;20078;-61
2023/07/21 11:41:09;;;;;;;16.52;13.02;;;;;;;;;;5053752;28;20040;-61
2023/07/21 11:44:01;;;;;;;19.00;13.55;;;;;;;;;;5071960;28;20036;-61
2023/07/21 11:46:27;;;;;;;18.42;13.23;;;;;;;;;;5069710;28;20036;-61
2023/07/21 11:48:54;;;;;;;17.27;12.95;;;;;;;;;;5071825;28;20047;-61
2023/07/21 11:51:22;;;;;;;19.30;16.48;;;;;;;;;;5072220;28;20389;-56
2023/07/21 11:53:49;;;;;;;22.70;20.30;;;;;;;;;;5071803;28;20017;-60
2023/07/21 11:56:15;;;;;;;19.30;17.23;;;;;;;;;;5071511;28;20028;-61
2023/07/21 11:58:44;;;;;;;22.00;19.90;;;;;;;;;;5054149;28;20035;-62
2023/07/21 12:01:10;;;;;;;22.23;17.90;;;;;;;;;;5053969;28;20025;-61
2023/07/21 12:03:42;;;;;;;19.75;15.98;;;;;;;;;;5071720;28;20028;-62
2023/07/21 12:06:10;;;;;;;20.58;16.75;;;;;;;;;;5071205;28;20050;-61
2023/07/21 12:08:36;;;;;;;18.17;15.90;;;;;;;;;;5072018;28;20119;-60
2023/07/21 12:11:02;;;;;;;17.88;14.90;;;;;;;;;;5053702;28;20510;-61
2023/07/21 12:13:28;;;;;;;17.50;14.55;;;;;;;;;;5071461;28;20035;-61
2023/07/21 12:15:54;;;;;;;18.77;14.20;;;;;;;;;;5069193;28;20508;-61
2023/07/21 12:18:20;;;;;;;20.33;13.38;;;;;;;;;;5070644;28;20021;-62
2023/07/21 12:20:46;;;;;;;17.75;13.15;;;;;;;;;;5071570;28;20044;-64
2023/07/21 12:23:12;;;;;;;19.35;14.27;;;;;;;;;;5067466;28;20016;-59
2023/07/21 12:25:38;;;;;;;18.48;15.13;;;;;;;;;;5048281;28;20341;-59
2023/07/21 12:28:04;;;;;;;18.35;14.65;;;;;;;;;;5059893;28;20459;-64
2023/07/21 12:30:30;;;;;;;18.50;14.07;;;;;;;;;;5062363;28;20120;-63
2023/07/21 12:32:56;;;;;;;17.40;13.73;;;;;;;;;;5067545;28;20016;-65
2023/07/21 12:35:22;;;;;;;18.45;13.55;;;;;;;;;;5064770;28;20021;-64
2023/07/21 12:37:48;;;;;;;19.85;13.30;;;;;;;;;;5071167;28;20374;-64
2023/07/21 12:40:15;;;;;;;17.77;13.10;;;;;;;;;;5064158;28;20021;-64
2023/07/21 12:42:41;;;;;;;16.88;12.48;;;;;;;;;;5067092;28;20017;-64
2023/07/21 12:45:07;;;;;;;17.23;12.48;;;;;;;;;;5063181;28;20027;-64
2023/07/21 12:47:34;;;;;;;18.02;13.30;;;;;;;;;;5071053;28;20083;-64
2023/07/21 12:50:00;;;;;;;16.65;12.60;;;;;;;;;;5071109;28;20062;-64
2023/07/21 12:52:26;;;;;;;16.77;12.43;;;;;;;;;;5071008;28;20469;-65
2023/07/21 12:54:52;;;;;;;16.52;13.10;;;;;;;;;;5070174;28;20067;-65
2023/07/21 12:57:18;;;;;;;17.17;13.07;;;;;;;;;;5070758;28;20021;-64
2023/07/21 12:59:44;;;;;;;16.55;13.90;;;;;;;;;;5070954;28;20357;-65
2023/07/21 13:02:10;;;;;;;16.67;14.23;;;;;;;;;;5069804;28;20101;-64
2023/07/21 13:04:36;;;;;;;18.38;14.35;;;;;;;;;;5070095;28;20096;-64
2023/07/21 13:07:09;;;;;;;17.33;14.35;;;;;;;;;;5068473;28;20052;-64
2023/07/21 13:09:35;;;;;;;17.00;13.60;;;;;;;;;;5061917;28;20032;-64
2023/07/21 13:12:02;;;;;;;17.77;12.80;;;;;;;;;;5070422;28;20021;-64
2023/07/21 13:14:28;;;;;;;16.95;13.20;;;;;;;;;;5070357;28;20024;-65
2023/07/21 13:16:54;;;;;;;17.30;13.68;;;;;;;;;;5071272;28;20095;-64
2023/07/21 13:19:20;;;;;;;16.95;13.63;;;;;;;;;;5070729;28;20017;-64
2023/07/21 13:21:46;;;;;;;18.30;13.82;;;;;;;;;;5070818;28;20444;-62
2023/07/21 13:24:12;;;;;;;16.98;14.65;;;;;;;;;;5052059;28;20151;-63
2023/07/21 13:26:40;;;;;;;16.77;13.27;;;;;;;;;;5052963;28;20051;-63
2023/07/21 13:29:07;;;;;;;17.65;13.35;;;;;;;;;;5070740;28;20025;-63
2023/07/21 13:31:33;;;;;;;16.30;13.48;;;;;;;;;;5070985;28;20033;-63
2023/07/21 13:33:59;;;;;;;16.95;14.07;;;;;;;;;;5070367;28;20466;-63
2023/07/21 13:36:25;;;;;;;16.08;13.32;;;;;;;;;;5070720;28;20039;-63
2023/07/21 13:38:52;;;;;;;17.50;13.55;;;;;;;;;;5070864;28;20125;-63
2023/07/21 13:41:18;;;;;;;17.85;13.90;;;;;;;;;;5052372;28;20025;-63
2023/07/21 13:43:44;;;;;;;17.50;14.27;;;;;;;;;;5070217;28;20043;-64
2023/07/21 13:46:10;;;;;;;17.60;12.93;;;;;;;;;;5069713;28;20469;-62
2023/07/21 13:48:36;;;;;;;16.52;13.10;;;;;;;;;;5052602;28;20020;-62
2023/07/21 13:51:03;;;;;;;17.27;13.48;;;;;;;;;;5070429;28;20439;-57
2023/07/21 13:53:29;;;;;;;16.60;13.30;;;;;;;;;;5072262;28;20488;-58
2023/07/21 13:55:55;;;;;;;16.30;12.68;;;;;;;;;;5073779;28;20046;-60
2023/07/21 13:58:21;;;;;;;17.60;13.38;;;;;;;;;;5074361;28;20024;-59
2023/07/21 14:00:48;;;;;;;17.70;13.80;;;;;;;;;;4721225;28;9999631;-61
2023/07/21 14:03:14;;;;;;;17.98;13.57;;;;;;;;;;5060122;28;20053;-60
2023/07/21 14:05:40;;;;;;;17.33;14.00;;;;;;;;;;5057078;28;20033;-60
2023/07/21 14:08:06;;;;;;;17.20;14.25;;;;;;;;;;5070737;28;20072;-60
2023/07/21 14:10:32;;;;;;;17.30;13.88;;;;;;;;;;5064455;28;20318;-61
2023/07/21 14:12:58;;;;;;;17.77;13.90;;;;;;;;;;5050010;28;20562;-58
2023/07/21 14:15:24;;;;;;;18.38;13.70;;;;;;;;;;5031756;28;20470;-61
2023/07/21 14:17:50;;;;;;;16.80;13.27;;;;;;;;;;5050215;28;20116;-60